createdAt,value
2018-07-03T00:00:22.513Z,12.20
2018-07-03T00:02:51.014Z,12.10
2018-07-03T00:05:19.586Z,12.10
2018-07-03T00:07:48.317Z,12.00
2018-07-03T00:10:16.867Z,12.10
2018-07-03T00:12:45.428Z,12.00
2018-07-03T00:15:13.918Z,12.00
2018-07-03T00:17:42.546Z,12.00
2018-07-03T00:20:11.128Z,11.90
2018-07-03T00:22:39.630Z,11.90
2018-07-03T00:25:08.260Z,11.90
2018-07-03T00:27:36.906Z,11.90
2018-07-03T00:30:05.551Z,11.90
2018-07-03T00:32:34.102Z,11.80
2018-07-03T00:35:02.646Z,11.70
2018-07-03T00:37:31.368Z,11.60
2018-07-03T00:40:00.154Z,11.60
2018-07-03T00:42:28.695Z,11.60
2018-07-03T00:44:57.319Z,11.60
2018-07-03T00:47:25.918Z,11.60
2018-07-03T00:49:54.441Z,11.60
2018-07-03T00:52:23.278Z,11.60
2018-07-03T00:54:52.442Z,11.60
2018-07-03T00:57:21.195Z,11.60
2018-07-03T01:00:01.118Z,11.50
2018-07-03T01:02:29.668Z,11.40
2018-07-03T01:04:58.534Z,11.40
2018-07-03T01:07:27.530Z,11.40
2018-07-03T01:09:56.364Z,11.40
2018-07-03T01:12:24.954Z,11.30
2018-07-03T01:14:53.730Z,11.40
2018-07-03T01:17:22.839Z,11.30
2018-07-03T01:19:51.404Z,11.20
2018-07-03T01:22:19.910Z,11.10
2018-07-03T01:24:48.465Z,11.10
2018-07-03T01:27:17.119Z,11.10
2018-07-03T01:29:45.642Z,11.10
2018-07-03T01:32:14.173Z,11.10
2018-07-03T01:34:42.734Z,11.10
2018-07-03T01:37:11.233Z,11.10
2018-07-03T01:39:40.115Z,11.10
2018-07-03T01:42:08.641Z,11.00
2018-07-03T01:44:37.330Z,11.00
2018-07-03T01:47:05.852Z,11.00
2018-07-03T01:49:34.370Z,10.90
2018-07-03T01:52:03.193Z,10.90
2018-07-03T01:54:31.713Z,11.00
2018-07-03T01:57:00.285Z,10.90
2018-07-03T01:59:29.486Z,10.90
2018-07-03T02:01:58.068Z,10.90
2018-07-03T02:04:26.838Z,10.90
2018-07-03T02:06:55.361Z,10.80
2018-07-03T02:09:23.908Z,10.80
2018-07-03T02:11:52.679Z,10.80
2018-07-03T02:14:21.163Z,10.80
2018-07-03T02:16:49.701Z,10.80
2018-07-03T02:21:46.600Z,10.80
2018-07-03T02:24:15.147Z,10.80
2018-07-03T02:26:43.710Z,10.80
2018-07-03T02:29:12.349Z,10.80
2018-07-03T02:31:40.894Z,10.90
2018-07-03T02:34:09.378Z,10.90
2018-07-03T02:36:38.202Z,10.90
2018-07-03T02:39:08.485Z,10.90
2018-07-03T02:41:37.160Z,10.90
2018-07-03T02:44:05.757Z,10.90
2018-07-03T02:46:34.253Z,10.90
2018-07-03T02:49:02.795Z,10.80
2018-07-03T02:51:31.374Z,10.90
2018-07-03T02:54:00.129Z,10.90
2018-07-03T02:56:28.712Z,10.90
2018-07-03T02:58:57.473Z,10.90
2018-07-03T03:01:26.079Z,10.90
2018-07-03T03:03:54.627Z,10.90
2018-07-03T03:06:23.227Z,10.90
2018-07-03T03:08:51.996Z,10.90
2018-07-03T03:11:23.261Z,10.90
2018-07-03T03:13:54.469Z,10.90
2018-07-03T03:16:23.121Z,10.90
2018-07-03T03:18:51.716Z,10.90
2018-07-03T03:21:20.667Z,10.90
2018-07-03T03:23:49.198Z,10.90
2018-07-03T03:26:18.090Z,11.00
2018-07-03T03:28:46.625Z,11.00
2018-07-03T03:31:15.213Z,11.00
2018-07-03T03:33:44.013Z,11.00
2018-07-03T03:36:12.609Z,11.00
2018-07-03T03:38:41.257Z,11.00
2018-07-03T03:41:09.826Z,11.00
2018-07-03T03:43:38.330Z,11.10
2018-07-03T03:46:06.876Z,11.10
2018-07-03T03:48:35.717Z,11.10
2018-07-03T03:51:04.502Z,11.10
2018-07-03T03:53:33.046Z,11.20
2018-07-03T03:56:01.980Z,11.20
2018-07-03T03:58:30.863Z,11.20
2018-07-03T04:00:59.502Z,11.20
2018-07-03T04:03:40.530Z,11.30
2018-07-03T04:06:09.269Z,11.30
2018-07-03T04:08:38.209Z,11.40
2018-07-03T04:11:06.804Z,11.40
2018-07-03T04:13:35.626Z,11.40
2018-07-03T04:16:04.465Z,11.50
2018-07-03T04:18:35.992Z,11.50
2018-07-03T04:21:06.907Z,11.50
2018-07-03T04:23:36.866Z,11.50
2018-07-03T04:28:34.374Z,11.60
2018-07-03T04:31:03.704Z,11.70
2018-07-03T04:33:32.670Z,11.70
2018-07-03T04:36:01.307Z,11.70
2018-07-03T04:38:30.037Z,11.80
2018-07-03T04:40:58.588Z,11.80
2018-07-03T04:43:27.197Z,11.90
2018-07-03T04:45:55.812Z,11.90
2018-07-03T04:48:24.348Z,12.00
2018-07-03T04:50:53.010Z,12.00
2018-07-03T04:53:21.896Z,12.10
2018-07-03T04:55:50.693Z,12.10
2018-07-03T04:58:19.403Z,12.20
2018-07-03T05:00:48.020Z,12.30
2018-07-03T05:03:16.872Z,12.30
2018-07-03T05:05:45.438Z,12.40
2018-07-03T05:08:14.422Z,12.40
2018-07-03T05:10:43.106Z,12.50
2018-07-03T05:13:13.895Z,12.60
2018-07-03T05:15:42.478Z,12.60
2018-07-03T05:18:11.088Z,12.70
2018-07-03T05:20:39.915Z,12.70
2018-07-03T05:23:08.981Z,12.90
2018-07-03T05:25:38.145Z,12.90
2018-07-03T05:28:07.360Z,13.00
2018-07-03T05:30:36.249Z,13.10
2018-07-03T05:33:05.418Z,13.20
2018-07-03T05:35:34.328Z,13.30
2018-07-03T05:38:03.042Z,13.40
2018-07-03T05:40:31.998Z,13.50
2018-07-03T05:43:01.313Z,13.60
2018-07-03T05:45:29.948Z,13.70
2018-07-03T05:47:58.467Z,13.70
2018-07-03T05:50:27.310Z,13.80
2018-07-03T05:52:56.041Z,13.80
2018-07-03T05:55:25.012Z,13.90
2018-07-03T05:57:53.567Z,13.90
2018-07-03T06:00:22.375Z,14.10
2018-07-03T06:02:50.968Z,14.10
2018-07-03T06:05:19.673Z,14.20
2018-07-03T06:07:48.196Z,14.30
2018-07-03T06:10:16.820Z,14.40
2018-07-03T06:12:45.385Z,14.40
2018-07-03T06:15:14.112Z,14.50
2018-07-03T06:17:42.837Z,14.50
2018-07-03T06:20:11.415Z,14.50
2018-07-03T06:22:39.952Z,14.60
2018-07-03T06:25:08.698Z,14.60
2018-07-03T06:27:37.351Z,14.70
2018-07-03T06:30:05.941Z,14.70
2018-07-03T06:32:34.522Z,14.80
2018-07-03T06:35:03.064Z,14.80
2018-07-03T06:37:31.844Z,14.90
2018-07-03T06:40:00.684Z,15.00
2018-07-03T06:42:29.280Z,15.00
2018-07-03T06:44:57.993Z,15.10
2018-07-03T06:49:55.123Z,15.40
2018-07-03T06:52:23.731Z,15.40
2018-07-03T06:54:52.444Z,15.40
2018-07-03T06:57:21.223Z,15.40
2018-07-03T06:59:49.631Z,15.50
2018-07-03T07:02:18.347Z,15.60
2018-07-03T07:04:46.929Z,15.60
2018-07-03T07:07:16.591Z,15.60
2018-07-03T07:09:45.286Z,15.70
2018-07-03T07:12:13.899Z,15.90
2018-07-03T07:14:42.782Z,16.00
2018-07-03T07:17:11.664Z,16.00
2018-07-03T07:19:40.375Z,16.10
2018-07-03T07:22:09.358Z,16.20
2018-07-03T07:24:37.950Z,16.30
2018-07-03T07:27:06.594Z,16.40
2018-07-03T07:29:35.251Z,16.50
2018-07-03T07:32:03.871Z,16.60
2018-07-03T07:34:32.492Z,16.70
2018-07-03T07:37:01.030Z,16.80
2018-07-03T07:39:29.657Z,16.90
2018-07-03T07:41:58.193Z,17.10
2018-07-03T07:44:27.082Z,17.20
2018-07-03T07:46:55.870Z,17.30
2018-07-03T07:49:24.408Z,17.40
2018-07-03T07:51:53.010Z,17.60
2018-07-03T07:54:21.927Z,17.80
2018-07-03T07:56:50.518Z,18.10
2018-07-03T07:59:19.505Z,18.50
2018-07-03T08:01:48.199Z,18.80
2018-07-03T08:04:16.807Z,19.10
2018-07-03T08:06:45.607Z,19.10
2018-07-03T08:09:14.124Z,19.20
2018-07-03T08:11:43.508Z,19.40
2018-07-03T08:14:12.266Z,19.60
2018-07-03T08:16:41.042Z,19.80
2018-07-03T08:19:09.856Z,20.00
2018-07-03T08:21:38.518Z,20.20
2018-07-03T08:24:07.385Z,20.40
2018-07-03T08:26:36.009Z,20.80
2018-07-03T08:29:04.754Z,21.10
2018-07-03T08:31:33.251Z,21.20
2018-07-03T08:34:02.183Z,21.30
2018-07-03T08:36:30.920Z,21.50
2018-07-03T08:38:59.626Z,21.70
2018-07-03T08:41:28.438Z,21.90
2018-07-03T08:43:56.946Z,22.10
2018-07-03T08:46:25.474Z,22.40
2018-07-03T08:48:54.109Z,22.50
2018-07-03T08:56:19.403Z,23.00
2018-07-03T08:58:48.228Z,23.10
2018-07-03T09:01:17.261Z,23.00
2018-07-03T09:03:46.058Z,22.90
2018-07-03T09:06:14.617Z,23.20
2018-07-03T09:08:43.583Z,23.20
2018-07-03T09:11:12.424Z,23.30
2018-07-03T09:13:41.280Z,23.60
2018-07-03T09:16:10.046Z,23.40
2018-07-03T09:18:38.726Z,23.60
2018-07-03T09:21:07.470Z,23.90
2018-07-03T09:23:36.073Z,24.10
2018-07-03T09:26:05.008Z,24.00
2018-07-03T09:28:33.952Z,24.00
2018-07-03T09:31:02.781Z,24.10
2018-07-03T09:33:31.567Z,24.00
2018-07-03T09:36:00.453Z,24.00
2018-07-03T09:38:29.105Z,24.30
2018-07-03T09:40:59.093Z,24.40
2018-07-03T09:43:28.259Z,24.30
2018-07-03T09:45:57.281Z,24.60
2018-07-03T09:48:26.320Z,24.70
2018-07-03T09:50:55.119Z,24.70
2018-07-03T09:53:23.958Z,25.00
2018-07-03T09:56:32.545Z,25.00
2018-07-03T09:59:01.023Z,24.70
2018-07-03T10:01:29.399Z,24.80
2018-07-03T10:03:57.807Z,24.70
2018-07-03T10:06:26.156Z,24.80
2018-07-03T10:08:54.499Z,24.80
2018-07-03T10:11:22.854Z,25.00
2018-07-03T10:13:51.183Z,25.00
2018-07-03T10:16:19.690Z,24.90
2018-07-03T10:18:48.054Z,25.20
2018-07-03T10:21:16.410Z,25.30
2018-07-03T10:23:44.923Z,25.40
2018-07-03T10:26:13.348Z,25.50
2018-07-03T10:28:41.918Z,25.70
2018-07-03T10:31:10.368Z,25.80
2018-07-03T10:33:38.952Z,25.70
2018-07-03T10:36:07.320Z,25.30
2018-07-03T10:38:35.723Z,25.60
2018-07-03T10:41:04.074Z,25.80
2018-07-03T10:43:32.417Z,26.00
2018-07-03T10:46:00.822Z,25.70
2018-07-03T10:48:29.414Z,25.80
2018-07-03T10:50:57.840Z,26.10
2018-07-03T10:53:26.226Z,26.40
2018-07-03T10:55:54.659Z,26.60
2018-07-03T10:58:22.984Z,26.80
2018-07-03T11:00:51.390Z,26.50
2018-07-03T11:05:48.195Z,26.30
2018-07-03T11:08:16.526Z,26.30
2018-07-03T11:10:44.940Z,26.40
2018-07-03T11:13:13.287Z,26.80
2018-07-03T11:15:42.068Z,26.50
2018-07-03T11:18:10.465Z,26.60
2018-07-03T11:23:07.158Z,26.50
2018-07-03T11:25:35.477Z,26.60
2018-07-03T11:28:03.820Z,26.80
2018-07-03T11:30:32.206Z,26.80
2018-07-03T11:33:00.625Z,26.70
2018-07-03T11:35:29.030Z,26.60
2018-07-03T11:37:57.491Z,26.30
2018-07-03T11:40:26.227Z,26.40
2018-07-03T11:42:54.703Z,26.50
2018-07-03T11:45:23.091Z,26.30
2018-07-03T11:47:51.417Z,26.50
2018-07-03T11:50:19.771Z,26.30
2018-07-03T11:52:48.341Z,26.30
2018-07-03T11:55:16.650Z,26.30
2018-07-03T11:57:44.953Z,26.20
2018-07-03T12:00:13.346Z,26.20
2018-07-03T12:02:41.703Z,26.30
2018-07-03T12:05:10.044Z,26.20
2018-07-03T12:07:38.484Z,26.10
2018-07-03T12:10:07.181Z,26.00
2018-07-03T12:12:36.337Z,26.10
2018-07-03T12:15:04.845Z,25.80
2018-07-03T12:17:33.429Z,25.70
2018-07-03T12:20:02.155Z,25.50
2018-07-03T12:22:30.517Z,25.20
2018-07-03T12:24:58.969Z,25.10
2018-07-03T12:27:27.362Z,25.30
2018-07-03T12:29:55.789Z,25.70
2018-07-03T12:32:24.082Z,25.70
2018-07-03T12:34:52.563Z,25.70
2018-07-03T12:37:20.967Z,25.50
2018-07-03T12:39:49.855Z,25.20
2018-07-03T12:42:18.199Z,25.30
2018-07-03T12:44:46.678Z,25.50
2018-07-03T12:47:15.045Z,25.70
2018-07-03T12:49:43.463Z,25.60
2018-07-03T12:52:11.829Z,25.30
2018-07-03T12:54:40.178Z,25.00
2018-07-03T12:57:08.572Z,25.20
2018-07-03T12:59:37.063Z,25.20
2018-07-03T13:02:05.624Z,25.50
2018-07-03T13:04:33.966Z,26.00
2018-07-03T13:07:02.314Z,26.20
2018-07-03T13:09:30.649Z,26.50
2018-07-03T13:14:27.100Z,26.30
2018-07-03T13:16:55.790Z,26.30
2018-07-03T13:21:52.423Z,26.50
2018-07-03T13:24:21.885Z,26.50
2018-07-03T13:26:50.197Z,26.40
2018-07-03T13:29:19.027Z,26.20
2018-07-03T13:31:47.578Z,26.10
2018-07-03T13:34:15.924Z,26.30
2018-07-03T13:36:44.746Z,26.20
2018-07-03T13:39:13.111Z,26.30
2018-07-03T13:41:41.518Z,26.40
2018-07-03T13:44:10.458Z,26.30
2018-07-03T13:46:38.832Z,26.30
2018-07-03T13:49:07.368Z,26.40
2018-07-03T13:51:35.703Z,26.50
2018-07-03T13:54:04.034Z,26.60
2018-07-03T13:56:32.549Z,26.70
2018-07-03T13:59:00.915Z,26.80
2018-07-03T14:01:29.290Z,26.80
2018-07-03T14:03:57.654Z,26.70
2018-07-03T14:06:26.294Z,26.70
2018-07-03T14:08:54.660Z,26.70
2018-07-03T14:11:23.069Z,26.70
2018-07-03T14:13:51.666Z,26.80
2018-07-03T14:16:20.700Z,26.80
2018-07-03T14:18:49.192Z,26.50
2018-07-03T14:21:17.506Z,26.40
2018-07-03T14:23:46.054Z,26.40
2018-07-03T14:26:14.766Z,26.40
2018-07-03T14:28:43.072Z,26.50
2018-07-03T14:31:11.525Z,26.40
2018-07-03T14:33:40.033Z,26.40
2018-07-03T14:36:09.669Z,26.20
2018-07-03T14:38:38.195Z,26.30
2018-07-03T14:41:06.539Z,26.40
2018-07-03T14:43:35.055Z,26.20
2018-07-03T14:46:03.624Z,25.90
2018-07-03T14:48:32.076Z,25.80
2018-07-03T14:51:00.651Z,26.00
2018-07-03T14:53:29.138Z,25.90
2018-07-03T14:55:57.457Z,25.80
2018-07-03T14:58:25.947Z,25.60
2018-07-03T15:00:54.551Z,25.60
2018-07-03T15:03:23.858Z,25.50
2018-07-03T15:05:52.411Z,25.40
2018-07-03T15:08:20.814Z,25.50
2018-07-03T15:10:49.214Z,25.70
2018-07-03T15:13:17.585Z,25.50
2018-07-03T15:15:45.970Z,25.60
2018-07-03T15:18:14.578Z,25.50
2018-07-03T15:20:43.138Z,25.30
2018-07-03T15:23:11.487Z,25.10
2018-07-03T15:25:39.804Z,25.30
2018-07-03T15:28:08.645Z,25.20
2018-07-03T15:30:37.125Z,25.30
2018-07-03T15:33:05.463Z,25.40
2018-07-03T15:35:34.042Z,25.50
2018-07-03T15:38:02.820Z,25.50
2018-07-03T15:40:31.933Z,25.50
2018-07-03T15:43:00.970Z,25.60
2018-07-03T15:45:29.574Z,25.40
2018-07-03T15:47:58.504Z,25.30
2018-07-03T15:50:27.278Z,25.30
2018-07-03T15:52:56.143Z,25.10
2018-07-03T15:55:24.971Z,25.20
2018-07-03T15:57:53.954Z,25.30
2018-07-03T16:00:22.654Z,25.30
2018-07-03T16:03:02.717Z,25.10
2018-07-03T16:05:42.727Z,25.20
2018-07-03T16:08:22.589Z,25.20
2018-07-03T16:10:51.305Z,25.10
2018-07-03T16:13:20.365Z,25.00
2018-07-03T16:15:49.170Z,25.10
2018-07-03T16:18:18.091Z,25.10
2018-07-03T16:20:47.199Z,25.10
2018-07-03T16:23:16.204Z,25.00
2018-07-03T16:25:45.188Z,25.00
2018-07-03T16:30:42.279Z,25.00
2018-07-03T16:33:10.891Z,25.00
2018-07-03T16:35:39.797Z,25.00
2018-07-03T16:38:08.567Z,25.00
2018-07-03T16:40:37.634Z,25.00
2018-07-03T16:43:06.431Z,25.00
2018-07-03T16:45:35.378Z,24.90
2018-07-03T16:48:05.116Z,24.80
2018-07-03T16:50:33.852Z,24.80
2018-07-03T16:53:02.421Z,24.70
2018-07-03T16:55:31.075Z,24.70
2018-07-03T16:57:59.974Z,24.70
2018-07-03T17:00:29.245Z,24.70
2018-07-03T17:02:58.480Z,24.60
2018-07-03T17:05:27.221Z,24.50
2018-07-03T17:07:56.142Z,24.50
2018-07-03T17:10:25.399Z,24.40
2018-07-03T17:12:54.234Z,24.20
2018-07-03T17:15:23.190Z,24.20
2018-07-03T17:20:20.580Z,24.20
2018-07-03T17:22:49.530Z,24.20
2018-07-03T17:25:18.385Z,24.10
2018-07-03T17:27:47.587Z,24.00
2018-07-03T17:30:16.226Z,23.90
2018-07-03T17:32:44.830Z,23.90
2018-07-03T17:35:13.747Z,23.80
2018-07-03T17:37:42.630Z,23.70
2018-07-03T17:40:22.992Z,23.60
2018-07-03T17:43:03.247Z,23.60
2018-07-03T17:45:44.537Z,23.50
2018-07-03T17:48:14.155Z,23.40
2018-07-03T17:50:43.969Z,23.40
2018-07-03T17:53:12.655Z,23.30
2018-07-03T17:55:41.627Z,23.30
2018-07-03T17:58:10.731Z,23.30
2018-07-03T18:00:40.116Z,23.20
2018-07-03T18:03:09.014Z,23.10
2018-07-03T18:05:37.801Z,23.10
2018-07-03T18:08:06.783Z,23.10
2018-07-03T18:10:35.449Z,23.10
2018-07-03T18:13:04.529Z,23.00
2018-07-03T18:15:33.486Z,23.00
2018-07-03T18:18:02.375Z,23.00
2018-07-03T18:20:31.127Z,22.90
2018-07-03T18:23:00.492Z,22.80
2018-07-03T18:25:29.151Z,22.80
2018-07-03T18:27:58.978Z,22.70
2018-07-03T18:30:27.766Z,22.70
2018-07-03T18:32:56.629Z,22.60
2018-07-03T18:35:25.787Z,22.60
2018-07-03T18:37:54.912Z,22.50
2018-07-03T18:40:23.630Z,22.40
2018-07-03T18:42:52.223Z,22.40
2018-07-03T18:45:20.920Z,22.30
2018-07-03T18:47:49.792Z,22.20
2018-07-03T18:50:18.492Z,22.10
2018-07-03T18:52:47.481Z,22.10
2018-07-03T18:55:16.442Z,22.00
2018-07-03T18:57:45.321Z,21.90
2018-07-03T19:00:14.232Z,21.90
2018-07-03T19:02:44.032Z,21.80
2018-07-03T19:05:12.852Z,21.70
2018-07-03T19:07:41.808Z,21.60
2018-07-03T19:10:10.549Z,21.60
2018-07-03T19:12:39.581Z,21.50
2018-07-03T19:15:08.229Z,21.40
2018-07-03T19:17:37.051Z,21.30
2018-07-03T19:20:06.114Z,21.20
2018-07-03T19:22:34.912Z,21.20
2018-07-03T19:25:03.639Z,21.10
2018-07-03T19:27:32.609Z,21.00
2018-07-03T19:30:03.152Z,21.00
2018-07-03T19:32:32.633Z,20.90
2018-07-03T19:35:01.419Z,20.80
2018-07-03T19:37:30.128Z,20.80
2018-07-03T19:39:59.010Z,20.70
2018-07-03T19:42:28.106Z,20.70
2018-07-03T19:44:57.063Z,20.60
2018-07-03T19:47:25.696Z,20.50
2018-07-03T19:49:54.397Z,20.40
2018-07-03T19:52:23.181Z,20.40
2018-07-03T19:54:52.353Z,20.40
2018-07-03T20:00:47.039Z,20.30
2018-07-03T20:03:15.603Z,20.20
2018-07-03T20:05:44.145Z,20.10
2018-07-03T20:08:12.794Z,20.10
2018-07-03T20:10:41.763Z,20.00
2018-07-03T20:13:12.711Z,19.90
2018-07-03T20:15:41.700Z,19.90
2018-07-03T20:18:11.510Z,19.80
2018-07-03T20:20:40.251Z,19.80
2018-07-03T20:23:09.081Z,19.70
2018-07-03T20:25:38.591Z,19.60
2018-07-03T20:28:08.113Z,19.60
2018-07-03T20:30:36.967Z,19.50
2018-07-03T20:33:05.818Z,19.50
2018-07-03T20:35:35.211Z,19.40
2018-07-03T20:38:05.286Z,19.30
2018-07-03T20:40:59.915Z,19.30
2018-07-03T20:43:30.064Z,19.30
2018-07-03T20:45:59.482Z,19.20
2018-07-03T20:48:28.636Z,19.10
2018-07-03T20:50:58.188Z,19.00
2018-07-03T20:53:27.007Z,19.00
2018-07-03T20:55:56.514Z,18.90
2018-07-03T20:58:25.431Z,18.80
2018-07-03T21:00:54.382Z,18.70
2018-07-03T21:03:23.261Z,18.70
2018-07-03T21:05:52.509Z,18.60
2018-07-03T21:08:20.945Z,18.50
2018-07-03T21:10:49.649Z,18.50
2018-07-03T21:13:19.115Z,18.40
2018-07-03T21:15:47.831Z,18.30
2018-07-03T21:18:16.643Z,18.20
2018-07-03T21:20:45.340Z,18.10
2018-07-03T21:23:14.525Z,18.10
2018-07-03T21:25:43.170Z,18.00
2018-07-03T21:28:12.015Z,18.00
2018-07-03T21:30:40.970Z,17.90
2018-07-03T21:33:09.506Z,17.90
2018-07-03T21:35:38.058Z,17.80
2018-07-03T21:38:06.573Z,17.70
2018-07-03T21:40:35.116Z,17.70
2018-07-03T21:43:03.646Z,17.60
2018-07-03T21:45:32.197Z,17.50
2018-07-03T21:48:01.578Z,17.50
2018-07-03T21:50:30.306Z,17.40
2018-07-03T21:52:58.822Z,17.40
2018-07-03T21:55:27.308Z,17.40
2018-07-03T21:57:55.787Z,17.30
2018-07-03T22:00:35.279Z,17.30
2018-07-03T22:03:05.159Z,17.20
2018-07-03T22:05:33.671Z,17.10
2018-07-03T22:08:02.226Z,17.10
2018-07-03T22:10:30.851Z,17.00
2018-07-03T22:13:00.311Z,17.00
2018-07-03T22:15:29.109Z,16.90
2018-07-03T22:17:57.638Z,16.90
2018-07-03T22:20:26.174Z,16.80
2018-07-03T22:22:54.817Z,16.70
2018-07-03T22:25:23.322Z,16.70
2018-07-03T22:27:53.142Z,16.60
2018-07-03T22:30:21.692Z,16.60
2018-07-03T22:32:50.209Z,16.50
2018-07-03T22:35:18.762Z,16.40
2018-07-03T22:37:47.228Z,16.40
2018-07-03T22:40:15.778Z,16.40
2018-07-03T22:42:44.266Z,16.30
2018-07-03T22:45:12.824Z,16.20
2018-07-03T22:47:41.400Z,16.20
2018-07-03T22:50:09.894Z,16.20
2018-07-03T22:52:38.666Z,16.10
2018-07-03T22:55:07.163Z,16.00
2018-07-03T22:57:35.799Z,16.00
2018-07-03T23:00:04.383Z,15.90
2018-07-03T23:02:33.637Z,15.90
2018-07-03T23:05:02.191Z,15.80
2018-07-03T23:07:30.720Z,15.80
2018-07-03T23:09:59.298Z,15.70
2018-07-03T23:12:27.769Z,15.60
2018-07-03T23:14:56.276Z,15.60
2018-07-03T23:17:24.797Z,15.50
2018-07-03T23:19:53.273Z,15.50
2018-07-03T23:22:21.821Z,15.50
2018-07-03T23:24:50.314Z,15.40
2018-07-03T23:27:18.905Z,15.40
2018-07-03T23:29:47.398Z,15.30
2018-07-03T23:32:15.861Z,15.30
2018-07-03T23:34:44.399Z,15.20
2018-07-03T23:37:12.893Z,15.20
2018-07-03T23:39:41.504Z,15.10
2018-07-03T23:42:10.031Z,15.10
2018-07-03T23:44:38.506Z,15.10
2018-07-03T23:47:18.121Z,15.00
2018-07-03T23:49:57.697Z,15.00
2018-07-03T23:52:37.356Z,14.90
2018-07-03T23:55:16.833Z,14.90
2018-07-03T23:57:56.357Z,14.80
